Time;durP1;ratioP1;P1;durP2;ratioP2;P2;SDS_P1;SDS_P2;PMS_P1;PMS_P2;Temp;Humidity;BMP_temperature;BMP_pressure;BME280_temperature;BME280_humidity;BME280_pressure;Samples;Min_cycle;Max_cycle;Signal;HPM_P1;HPM_P2
2023/03/08 04:01:40;;;;;;;5.80;4.70;;;3.90;68.20;;;;;;5593718;23;20501;-74
2023/03/08 04:04:06;;;;;;;4.80;4.10;;;3.90;67.90;;;;;;4976822;28;20497;-73
2023/03/08 04:06:34;;;;;;;5.27;4.57;;;3.80;67.80;;;;;;4976741;28;20454;-74
2023/03/08 04:09:03;;;;;;;5.30;4.00;;;3.80;68.00;;;;;;4976649;28;20458;-73
2023/03/08 04:11:33;;;;;;;5.70;4.20;;;3.90;68.20;;;;;;4976449;28;20462;-73
2023/03/08 04:14:00;;;;;;;5.70;4.33;;;3.80;67.90;;;;;;4977077;28;20446;-73
2023/03/08 04:16:29;;;;;;;5.10;4.60;;;3.80;67.90;;;;;;4976343;28;20934;-73
2023/03/08 04:19:00;;;;;;;4.93;4.43;;;3.90;68.00;;;;;;4976297;28;20450;-73
2023/03/08 04:21:27;;;;;;;5.47;4.60;;;3.80;68.00;;;;;;4975380;28;20486;-73
2023/03/08 04:23:55;;;;;;;6.10;4.67;;;3.80;68.50;;;;;;4975958;28;20520;-73
2023/03/08 04:26:22;;;;;;;4.50;4.00;;;3.80;68.30;;;;;;4976067;28;20453;-73
2023/03/08 04:28:49;;;;;;;5.10;4.50;;;3.90;68.20;;;;;;4976088;28;20497;-72
2023/03/08 04:31:19;;;;;;;6.70;4.70;;;3.90;68.20;;;;;;4976021;28;20466;-73
2023/03/08 04:33:46;;;;;;;5.70;4.57;;;3.90;68.00;;;;;;4975795;28;20526;-73
2023/03/08 04:36:16;;;;;;;6.07;5.03;;;4.10;68.10;;;;;;4976114;28;20510;-73
2023/03/08 04:38:43;;;;;;;5.97;4.70;;;4.20;67.40;;;;;;4975983;28;20457;-73
2023/03/08 04:41:10;;;;;;;5.30;4.80;;;4.20;67.50;;;;;;4975876;28;20493;-73
2023/03/08 04:43:38;;;;;;;5.00;3.97;;;4.10;67.10;;;;;;4975903;28;20470;-73
2023/03/08 04:46:05;;;;;;;4.50;4.03;;;4.00;67.50;;;;;;4975797;28;20528;-73
2023/03/08 04:48:32;;;;;;;4.40;3.70;;;4.00;68.10;;;;;;4975965;28;20462;-73
2023/03/08 04:51:01;;;;;;;6.10;5.10;;;4.00;68.00;;;;;;4975476;28;20975;-73
2023/03/08 04:53:30;;;;;;;5.27;4.60;;;3.90;68.20;;;;;;4975780;28;20446;-73
2023/03/08 04:55:59;;;;;;;5.77;5.10;;;3.90;68.50;;;;;;4975672;28;20467;-74
2023/03/08 04:58:26;;;;;;;6.80;4.97;;;3.90;68.60;;;;;;4975696;28;20565;-73
2023/03/08 05:00:53;;;;;;;6.33;4.80;;;3.90;68.60;;;;;;4975075;28;20494;-74
2023/03/08 05:03:19;;;;;;;5.50;5.00;;;3.90;68.90;;;;;;4975592;28;20435;-73
2023/03/08 05:05:47;;;;;;;6.27;4.90;;;3.80;69.20;;;;;;4975373;28;20450;-72
2023/03/08 05:08:13;;;;;;;6.43;5.20;;;3.80;69.50;;;;;;4975348;28;20456;-73
2023/03/08 05:10:47;;;;;;;5.93;5.33;;;3.80;69.70;;;;;;4975243;28;20470;-74
2023/03/08 05:13:14;;;;;;;6.57;5.80;;;3.80;69.80;;;;;;4975507;28;20524;-74
2023/03/08 05:15:40;;;;;;;6.43;5.83;;;3.70;69.90;;;;;;4975706;28;20450;-75
2023/03/08 05:18:07;;;;;;;5.90;5.30;;;3.90;70.00;;;;;;4975079;28;20940;-75
2023/03/08 05:20:34;;;;;;;8.00;5.40;;;3.80;69.70;;;;;;4974989;28;20509;-74
2023/03/08 05:23:00;;;;;;;7.07;5.37;;;3.70;69.90;;;;;;4975345;28;20450;-74
2023/03/08 05:25:29;;;;;;;7.30;6.27;;;3.70;70.10;;;;;;4975342;28;20454;-74
2023/03/08 05:27:57;;;;;;;5.83;5.07;;;3.80;69.90;;;;;;4975227;28;20474;-74
2023/03/08 05:30:24;;;;;;;6.30;5.00;;;3.80;69.80;;;;;;4974809;28;20541;-75
2023/03/08 05:32:51;;;;;;;6.27;4.90;;;3.90;69.90;;;;;;4974928;28;20450;-75
2023/03/08 05:35:17;;;;;;;7.10;5.53;;;3.90;69.40;;;;;;4974325;28;20497;-73
2023/03/08 05:37:44;;;;;;;5.70;4.87;;;3.90;69.50;;;;;;4974890;28;20461;-74
2023/03/08 05:40:12;;;;;;;6.03;5.00;;;4.00;69.60;;;;;;4974994;28;20540;-74
2023/03/08 05:42:39;;;;;;;6.30;4.77;;;4.00;69.20;;;;;;4975015;28;20521;-75
2023/03/08 05:45:08;;;;;;;6.90;5.87;;;3.90;69.20;;;;;;4974723;28;20453;-74
2023/03/08 05:47:35;;;;;;;7.20;5.77;;;4.00;69.60;;;;;;4974451;28;20781;-74
2023/03/08 05:50:01;;;;;;;5.70;5.10;;;4.00;69.20;;;;;;4974841;28;20450;-75
2023/03/08 05:52:29;;;;;;;7.67;5.57;;;4.00;69.30;;;;;;4974662;28;20470;-74
2023/03/08 05:54:56;;;;;;;7.90;6.33;;;4.10;69.30;;;;;;4974993;28;20509;-74
2023/03/08 05:57:22;;;;;;;6.83;5.50;;;4.10;69.40;;;;;;4974401;28;20450;-74
2023/03/08 05:59:49;;;;;;;7.10;6.40;;;4.10;69.50;;;;;;4974509;28;20454;-74
2023/03/08 06:02:17;;;;;;;6.43;5.73;;;4.10;69.70;;;;;;4974299;28;20490;-74
2023/03/08 06:04:44;;;;;;;6.17;5.27;;;4.10;69.60;;;;;;4974506;28;20454;-74
2023/03/08 06:07:10;;;;;;;7.63;6.90;;;4.20;69.80;;;;;;4974526;28;20445;-74
2023/03/08 06:09:37;;;;;;;6.40;5.80;;;4.20;70.30;;;;;;4974366;28;20512;-74
2023/03/08 06:12:04;;;;;;;7.00;5.60;;;4.30;70.10;;;;;;4974791;28;20469;-74
2023/03/08 06:14:31;;;;;;;6.23;5.63;;;4.30;70.00;;;;;;4974427;28;20591;-74
2023/03/08 06:16:57;;;;;;;9.53;6.60;;;4.40;69.70;;;;;;4974216;28;20450;-74
2023/03/08 06:19:25;;;;;;;7.47;6.60;;;4.60;69.40;;;;;;4974322;28;20460;-74
2023/03/08 06:21:52;;;;;;;8.63;6.57;;;4.60;69.40;;;;;;4974115;28;20490;-74
2023/03/08 06:24:19;;;;;;;6.50;5.77;;;4.70;69.30;;;;;;4974245;28;20458;-74
2023/03/08 06:26:45;;;;;;;6.63;6.00;;;4.70;69.40;;;;;;4974452;28;20493;-74
2023/03/08 06:29:12;;;;;;;7.50;6.73;;;4.60;69.80;;;;;;4974142;28;20481;-74
2023/03/08 06:31:39;;;;;;;7.13;5.90;;;4.60;70.30;;;;;;4973999;28;20474;-74
2023/03/08 06:34:05;;;;;;;9.50;7.63;;;4.60;70.30;;;;;;4974305;28;20446;-74
2023/03/08 06:36:33;;;;;;;6.97;6.27;;;4.50;70.60;;;;;;4974191;28;20455;-74
2023/03/08 06:39:00;;;;;;;7.47;6.50;;;4.60;70.80;;;;;;4974104;28;20478;-74
2023/03/08 06:41:28;;;;;;;7.17;6.47;;;4.70;70.70;;;;;;4974022;28;20855;-74
2023/03/08 06:43:55;;;;;;;7.60;6.40;;;4.80;70.20;;;;;;4974388;28;20454;-74
2023/03/08 06:46:21;;;;;;;7.90;7.10;;;4.60;70.70;;;;;;4976862;28;20947;-73
2023/03/08 06:48:48;;;;;;;7.00;6.40;;;4.60;71.00;;;;;;4977781;28;20962;-75
2023/03/08 06:51:15;;;;;;;7.00;6.23;;;4.70;70.90;;;;;;4977860;28;20466;-74
2023/03/08 06:53:44;;;;;;;7.43;6.67;;;4.70;71.20;;;;;;4977766;28;21035;-75
2023/03/08 06:56:13;;;;;;;7.90;6.67;;;4.60;71.20;;;;;;4977854;28;20458;-75
2023/03/08 06:58:40;;;;;;;7.63;6.87;;;4.70;71.00;;;;;;4977567;28;20465;-74
2023/03/08 07:01:08;;;;;;;8.73;6.50;;;4.70;71.30;;;;;;4977738;28;20494;-74
2023/03/08 07:03:35;;;;;;;6.97;6.27;;;4.80;71.00;;;;;;4978181;28;20442;-74
2023/03/08 07:06:04;;;;;;;8.10;7.30;;;5.00;71.00;;;;;;4978289;28;20453;-74
2023/03/08 07:08:31;;;;;;;6.33;5.73;;;5.10;70.80;;;;;;4977876;28;20450;-74
2023/03/08 07:11:00;;;;;;;7.43;6.63;;;5.20;70.10;;;;;;4978227;28;20485;-74
2023/03/08 07:13:27;;;;;;;7.07;6.40;;;5.30;69.50;;;;;;4978005;28;20452;-74
2023/03/08 07:15:54;;;;;;;7.80;6.20;;;5.30;69.80;;;;;;4978036;28;20544;-74
2023/03/08 07:18:21;;;;;;;7.23;6.53;;;5.30;70.10;;;;;;4977918;28;20857;-73
2023/03/08 07:20:52;;;;;;;7.10;6.40;;;5.40;69.60;;;;;;4977626;28;20489;-74
2023/03/08 07:23:19;;;;;;;8.17;7.17;;;5.50;69.50;;;;;;4977434;28;20434;-72
2023/03/08 07:25:45;;;;;;;8.80;7.30;;;5.50;69.20;;;;;;4978948;28;20795;-73
2023/03/08 07:28:13;;;;;;;6.80;6.10;;;5.50;69.40;;;;;;4977436;28;20466;-75
2023/03/08 07:30:40;;;;;;;7.30;6.50;;;5.60;69.60;;;;;;4977594;28;20483;-75
2023/03/08 07:33:07;;;;;;;8.03;7.23;;;5.70;69.30;;;;;;4977633;28;20458;-72
2023/03/08 07:35:33;;;;;;;6.20;5.60;;;5.60;69.10;;;;;;4977658;28;20453;-75
2023/03/08 07:38:00;;;;;;;7.37;6.63;;;5.50;69.80;;;;;;4977488;28;20458;-73
2023/03/08 07:40:27;;;;;;;5.90;5.30;;;5.50;69.90;;;;;;4977222;28;20990;-76
2023/03/08 07:42:53;;;;;;;7.90;7.10;;;5.50;70.20;;;;;;4977632;28;20865;-73
2023/03/08 07:45:22;;;;;;;7.70;6.90;;;5.40;70.80;;;;;;4976914;28;20962;-72
2023/03/08 07:47:51;;;;;;;6.60;5.83;;;5.40;71.20;;;;;;4977364;28;20453;-72
2023/03/08 07:50:18;;;;;;;8.53;5.27;;;5.50;70.90;;;;;;4977443;28;20541;-72
2023/03/08 07:52:44;;;;;;;6.40;4.57;;;5.60;71.40;;;;;;4977185;28;20533;-72
2023/03/08 07:55:11;;;;;;;4.87;4.23;;;5.70;71.40;;;;;;4977030;28;20462;-74
2023/03/08 07:57:38;;;;;;;6.10;5.03;;;5.70;71.70;;;;;;4975967;28;20453;-72
2023/03/08 08:00:07;;;;;;;6.23;5.40;;;5.90;71.70;;;;;;4977034;28;20458;-72
2023/03/08 08:02:36;;;;;;;6.03;4.93;;;5.80;71.60;;;;;;4976501;28;20512;-72
2023/03/08 08:05:03;;;;;;;5.23;4.73;;;5.80;72.10;;;;;;4976866;28;20454;-73
2023/03/08 08:07:30;;;;;;;5.00;4.37;;;5.80;72.20;;;;;;4976960;28;20477;-72
2023/03/08 08:09:57;;;;;;;5.63;4.63;;;5.60;73.00;;;;;;4976953;28;20454;-73
2023/03/08 08:12:24;;;;;;;5.70;4.50;;;5.50;73.30;;;;;;4976673;28;20470;-72
2023/03/08 08:14:51;;;;;;;6.60;4.77;;;5.50;73.90;;;;;;4976746;28;20497;-73
2023/03/08 08:17:18;;;;;;;6.40;5.80;;;5.30;74.20;;;;;;4977007;28;20541;-73
2023/03/08 08:19:46;;;;;;;5.50;4.87;;;5.50;73.90;;;;;;4976711;28;20461;-74
2023/03/08 08:22:13;;;;;;;5.23;4.73;;;5.60;73.70;;;;;;4976630;28;20545;-72
2023/03/08 08:24:40;;;;;;;5.70;5.10;;;5.50;73.90;;;;;;4976925;28;20454;-73
2023/03/08 08:27:07;;;;;;;5.67;5.13;;;5.70;73.80;;;;;;4976468;28;20528;-73
2023/03/08 08:29:33;;;;;;;6.67;5.43;;;5.80;73.90;;;;;;4976493;28;20870;-73
2023/03/08 08:32:00;;;;;;;5.37;4.87;;;6.00;73.20;;;;;;4975896;28;20473;-73
2023/03/08 08:34:27;;;;;;;6.30;5.20;;;5.80;73.60;;;;;;4975959;28;20450;-72
2023/03/08 08:36:55;;;;;;;5.63;4.73;;;5.60;74.10;;;;;;4975934;28;20461;-72
2023/03/08 08:39:22;;;;;;;6.43;5.40;;;5.90;74.50;;;;;;4975754;28;20450;-72
2023/03/08 08:41:48;;;;;;;7.30;5.60;;;6.00;73.70;;;;;;4975603;28;20490;-72
2023/03/08 08:44:15;;;;;;;6.60;5.37;;;6.10;73.00;;;;;;4975413;28;20962;-71
2023/03/08 08:46:42;;;;;;;5.90;5.30;;;6.30;72.70;;;;;;4975721;28;20450;-73
2023/03/08 08:49:10;;;;;;;5.70;5.13;;;6.30;72.40;;;;;;4975478;28;20944;-73
2023/03/08 08:51:37;;;;;;;9.10;6.83;;;6.30;72.60;;;;;;4975569;28;20463;-72
2023/03/08 08:54:05;;;;;;;7.10;6.23;;;6.00;73.30;;;;;;4975666;28;20458;-71
2023/03/08 08:56:31;;;;;;;7.57;5.70;;;6.20;73.10;;;;;;4975573;28;20466;-71
2023/03/08 08:59:00;;;;;;;6.23;5.63;;;6.00;73.90;;;;;;4975833;28;20458;-72
2023/03/08 09:01:29;;;;;;;6.43;5.47;;;6.20;73.90;;;;;;4975193;28;20506;-72
2023/03/08 09:03:56;;;;;;;6.70;6.10;;;6.40;74.10;;;;;;4975472;28;20867;-71
2023/03/08 09:06:24;;;;;;;5.77;4.90;;;6.40;72.80;;;;;;4975320;28;20458;-72
2023/03/08 09:08:53;;;;;;;7.10;6.40;;;6.40;73.30;;;;;;4975313;28;20472;-72
2023/03/08 09:11:22;;;;;;;5.83;5.23;;;6.30;73.10;;;;;;4975209;28;20470;-71
2023/03/08 09:13:49;;;;;;;6.83;6.10;;;6.40;73.70;;;;;;4975271;28;20449;-72
2023/03/08 09:16:18;;;;;;;6.70;6.00;;;6.50;72.90;;;;;;4974990;28;20924;-72
2023/03/08 09:18:45;;;;;;;8.80;6.40;;;6.40;73.10;;;;;;4975248;28;20804;-71
2023/03/08 09:21:11;;;;;;;6.40;5.80;;;6.50;73.70;;;;;;4975073;28;20486;-72
2023/03/08 09:23:38;;;;;;;6.40;5.80;;;6.60;73.70;;;;;;4974876;28;20446;-72
2023/03/08 09:26:05;;;;;;;8.17;5.87;;;6.50;72.90;;;;;;4975095;28;20533;-73
2023/03/08 09:28:33;;;;;;;6.57;5.87;;;6.60;73.50;;;;;;4974976;28;20449;-72
2023/03/08 09:31:01;;;;;;;6.63;5.10;;;6.40;72.90;;;;;;4975003;28;20548;-72
2023/03/08 09:33:28;;;;;;;7.00;6.30;;;6.40;73.10;;;;;;4975028;28;20450;-72
2023/03/08 09:35:56;;;;;;;8.60;6.20;;;6.50;73.50;;;;;;4975028;28;20815;-72
2023/03/08 09:38:23;;;;;;;6.60;5.40;;;6.40;73.40;;;;;;4974920;28;20482;-72
2023/03/08 09:40:58;;;;;;;7.10;5.70;;;6.20;73.40;;;;;;4974824;28;20477;-72
2023/03/08 09:43:34;;;;;;;5.60;4.97;;;6.10;73.60;;;;;;4974847;28;20430;-72
2023/03/08 09:46:03;;;;;;;7.87;6.00;;;6.40;74.00;;;;;;4975502;28;20781;-71
2023/03/08 09:48:31;;;;;;;5.93;5.27;;;6.30;73.40;;;;;;4974754;28;20453;-73
2023/03/08 09:51:02;;;;;;;7.77;5.70;;;6.40;73.60;;;;;;4974689;28;20470;-72
2023/03/08 09:53:35;;;;;;;5.97;5.37;;;6.50;73.10;;;;;;4974649;28;20434;-71
2023/03/08 09:56:04;;;;;;;5.47;4.67;;;6.70;73.80;;;;;;4974171;28;20915;-71
2023/03/08 09:58:40;;;;;;;5.50;5.00;;;6.80;74.20;;;;;;4974540;28;20501;-72
2023/03/08 10:01:26;;;;;;;4.63;4.13;;;7.00;74.90;;;;;;4974275;28;20669;-71
2023/03/08 10:04:18;;;;;;;4.40;3.63;;;7.10;75.00;;;;;;4974640;28;20434;-71
2023/03/08 10:06:54;;;;;;;7.83;3.83;;;7.10;75.70;;;;;;4974531;28;20427;-71
2023/03/08 10:09:31;;;;;;;5.07;4.00;;;7.20;76.40;;;;;;4974383;28;20489;-71
2023/03/08 10:12:03;;;;;;;4.73;3.77;;;7.20;76.60;;;;;;4974600;28;20493;-72
2023/03/08 10:14:32;;;;;;;4.90;4.40;;;7.30;76.20;;;;;;4975008;28;20537;-71
2023/03/08 10:17:05;;;;;;;5.67;4.40;;;7.20;77.00;;;;;;4974470;28;20450;-72
2023/03/08 10:19:36;;;;;;;4.77;3.67;;;7.20;77.50;;;;;;4978440;28;20801;-71
2023/03/08 10:22:08;;;;;;;4.80;3.90;;;7.20;78.40;;;;;;4978329;28;20493;-71
2023/03/08 10:24:42;;;;;;;4.23;3.60;;;7.20;78.60;;;;;;4974371;28;20415;-71
2023/03/08 10:27:20;;;;;;;4.60;3.33;;;7.30;78.70;;;;;;4974157;28;20966;-72
2023/03/08 10:29:51;;;;;;;4.23;3.20;;;7.40;79.00;;;;;;4974091;28;20489;-72
2023/03/08 10:32:20;;;;;;;4.07;3.00;;;7.40;79.20;;;;;;4974195;28;20462;-72
2023/03/08 10:34:47;;;;;;;5.77;3.57;;;7.50;79.40;;;;;;4974207;28;20438;-72
2023/03/08 10:37:15;;;;;;;3.83;3.00;;;7.50;79.90;;;;;;4974423;28;20819;-72
2023/03/08 10:39:51;;;;;;;3.83;3.27;;;7.60;80.10;;;;;;4973829;28;20438;-72
2023/03/08 10:42:21;;;;;;;4.10;3.10;;;7.60;80.80;;;;;;4973678;28;20493;-72
2023/03/08 10:44:54;;;;;;;3.73;3.17;;;7.70;81.00;;;;;;4973743;28;21022;-72
2023/03/08 10:47:24;;;;;;;4.20;3.30;;;7.80;81.10;;;;;;4974081;28;20435;-73
2023/03/08 10:50:04;;;;;;;4.07;2.87;;;8.10;80.80;;;;;;4974068;28;20454;-71
2023/03/08 10:52:31;;;;;;;3.20;2.20;;;8.30;80.20;;;;;;4973671;28;20474;-72
2023/03/08 10:55:02;;;;;;;3.20;2.30;;;8.40;80.00;;;;;;4974158;28;20454;-73
2023/03/08 10:57:29;;;;;;;2.93;2.13;;;8.50;80.20;;;;;;4973431;28;21030;-71
2023/03/08 11:00:00;;;;;;;2.80;2.03;;;8.50;80.80;;;;;;4973883;28;20501;-73
2023/03/08 11:02:29;;;;;;;3.37;2.20;;;8.70;80.80;;;;;;4973601;28;20486;-72
2023/03/08 11:04:57;;;;;;;2.80;1.80;;;8.70;81.00;;;;;;4974067;28;20450;-73
2023/03/08 11:07:26;;;;;;;2.80;1.50;;;8.70;80.90;;;;;;4973998;28;20453;-71
2023/03/08 11:10:04;;;;;;;2.60;1.53;;;8.80;81.10;;;;;;4973556;28;20450;-73
2023/03/08 11:12:30;;;;;;;2.47;1.53;;;8.90;81.10;;;;;;4973775;28;20481;-72
2023/03/08 11:14:57;;;;;;;5.57;2.13;;;8.90;81.60;;;;;;4973597;28;20982;-72
2023/03/08 11:17:34;;;;;;;2.40;1.33;;;9.10;81.30;;;;;;4973933;28;20487;-72
2023/03/08 11:20:12;;;;;;;2.07;0.90;;;9.20;81.00;;;;;;4973470;28;20989;-73
2023/03/08 11:22:52;;;;;;;2.20;0.90;;;9.30;80.80;;;;;;4973423;28;20485;-73
2023/03/08 11:25:31;;;;;;;2.13;0.97;;;9.50;80.60;;;;;;4973681;28;20963;-73
2023/03/08 11:28:12;;;;;;;2.30;1.00;;;9.50;80.40;;;;;;4975103;28;20437;-73
2023/03/08 11:30:54;;;;;;;2.20;1.00;;;9.60;80.40;;;;;;4973969;28;20439;-74
2023/03/08 11:33:51;;;;;;;1.80;0.70;;;9.80;79.90;;;;;;4976586;28;20430;-73
2023/03/08 11:36:25;;;;;;;2.10;1.00;;;10.00;79.60;;;;;;4975621;28;20546;-74
2023/03/08 11:38:58;;;;;;;1.97;0.90;;;10.00;79.40;;;;;;4977266;28;20430;-74
2023/03/08 11:41:31;;;;;;;2.67;0.80;;;10.00;79.50;;;;;;4976816;28;20909;-74
2023/03/08 11:44:32;;;;;;;1.90;0.83;;;10.00;79.50;;;;;;4977870;28;20470;-73
2023/03/08 11:47:28;;;;;;;1.90;0.70;;;10.00;79.60;;;;;;4977156;28;20438;-73
2023/03/08 11:50:06;;;;;;;1.97;0.80;;;10.10;79.60;;;;;;4976373;28;20458;-74
2023/03/08 11:52:43;;;;;;;1.97;0.80;;;10.20;79.30;;;;;;4977001;28;20477;-73
2023/03/08 11:55:28;;;;;;;1.87;0.70;;;10.30;79.10;;;;;;4977035;28;20453;-73
2023/03/08 11:58:00;;;;;;;3.70;1.20;;;10.20;79.20;;;;;;4976586;28;20470;-72
2023/03/08 12:00:30;;;;;;;1.80;0.70;;;10.30;79.10;;;;;;4976693;28;20438;-73
2023/03/08 12:03:02;;;;;;;1.90;0.80;;;10.40;78.90;;;;;;4976258;28;20486;-73
2023/03/08 12:05:34;;;;;;;1.90;0.80;;;10.50;78.90;;;;;;4976414;28;20779;-73
2023/03/08 12:08:05;;;;;;;1.80;0.63;;;10.50;78.80;;;;;;4979153;28;20439;-73
2023/03/08 12:10:40;;;;;;;2.20;0.90;;;10.40;79.20;;;;;;4979012;28;20435;-73
2023/03/08 12:13:17;;;;;;;1.97;0.80;;;10.40;79.20;;;;;;4979534;28;20438;-73
2023/03/08 12:15:48;;;;;;;1.97;0.83;;;10.50;79.20;;;;;;4980619;28;20443;-74
2023/03/08 12:18:20;;;;;;;1.90;0.70;;;10.50;79.10;;;;;;4985696;28;20441;-74
2023/03/08 12:20:48;;;;;;;2.07;0.70;;;10.60;79.10;;;;;;4985289;28;20470;-74
2023/03/08 12:23:26;;;;;;;2.10;0.80;;;10.80;78.60;;;;;;4983401;28;20482;-72
2023/03/08 12:25:58;;;;;;;2.57;1.40;;;10.90;78.20;;;;;;4980427;28;20465;-73
2023/03/08 12:28:28;;;;;;;1.93;0.80;;;10.90;78.30;;;;;;4980390;28;20435;-72
2023/03/08 12:31:08;;;;;;;4.77;1.93;;;10.90;78.40;;;;;;4979467;28;20481;-71
2023/03/08 12:33:35;;;;;;;2.57;0.77;;;10.90;78.40;;;;;;4981158;28;20454;-72
2023/03/08 12:36:04;;;;;;;1.90;0.80;;;11.00;78.30;;;;;;4979152;28;20450;-72
2023/03/08 12:38:36;;;;;;;2.10;0.80;;;11.10;78.10;;;;;;4976040;28;20997;-72
2023/03/08 12:41:05;;;;;;;3.03;1.03;;;11.20;77.90;;;;;;4976313;28;20477;-73
2023/03/08 12:43:34;;;;;;;2.73;0.90;;;11.20;78.00;;;;;;4975787;28;20526;-73
2023/03/08 12:46:05;;;;;;;1.80;0.60;;;11.30;77.80;;;;;;4976195;28;20457;-73
2023/03/08 12:48:36;;;;;;;1.80;0.80;;;11.20;78.00;;;;;;4975642;28;20450;-72
2023/03/08 12:51:08;;;;;;;2.00;0.87;;;11.20;78.20;;;;;;4975764;28;20991;-72
2023/03/08 12:53:40;;;;;;;3.50;1.00;;;11.20;78.40;;;;;;4975789;28;20466;-72
2023/03/08 12:56:24;;;;;;;2.00;0.87;;;11.20;78.50;;;;;;4976123;28;20434;-73
2023/03/08 12:58:53;;;;;;;1.80;0.70;;;11.20;78.60;;;;;;4976511;28;20422;-73
2023/03/08 13:01:28;;;;;;;1.80;0.80;;;11.30;78.40;;;;;;4975660;28;20489;-73
2023/03/08 13:03:55;;;;;;;2.80;1.03;;;11.30;78.40;;;;;;4975669;28;20474;-74
2023/03/08 13:06:49;;;;;;;2.27;0.90;;;11.30;78.60;;;;;;4975719;28;20986;-73
2023/03/08 13:09:25;;;;;;;1.90;0.73;;;11.30;78.70;;;;;;4975684;28;20490;-74
2023/03/08 13:12:00;;;;;;;1.90;0.70;;;11.30;78.70;;;;;;4975914;28;20477;-74
2023/03/08 13:14:37;;;;;;;2.20;0.70;;;11.40;78.40;;;;;;4975654;28;20435;-73
2023/03/08 13:17:31;;;;;;;1.80;0.70;;;11.50;78.20;;;;;;4976073;28;20442;-73
2023/03/08 13:20:04;;;;;;;2.13;0.80;;;11.70;78.00;;;;;;4975310;28;20839;-74
2023/03/08 13:22:40;;;;;;;2.10;1.00;;;11.80;77.80;;;;;;4975290;28;20557;-73
2023/03/08 13:25:16;;;;;;;2.53;0.80;;;12.00;77.40;;;;;;4975055;28;20911;-73
2023/03/08 13:27:51;;;;;;;2.30;0.83;;;11.90;77.40;;;;;;4974943;28;20904;-74
2023/03/08 13:30:23;;;;;;;1.80;0.73;;;11.90;77.50;;;;;;4975058;28;20915;-72
2023/03/08 13:32:51;;;;;;;2.00;0.80;;;11.90;77.70;;;;;;4974916;28;20900;-73
2023/03/08 13:35:19;;;;;;;2.00;0.70;;;11.80;78.20;;;;;;4975116;28;20458;-72
2023/03/08 13:37:53;;;;;;;1.90;0.80;;;11.80;78.00;;;;;;4974634;28;20458;-73
2023/03/08 13:40:23;;;;;;;2.60;0.80;;;11.80;78.20;;;;;;4975180;28;20422;-73
2023/03/08 13:42:53;;;;;;;1.77;0.70;;;11.70;78.40;;;;;;4975454;28;20497;-73
2023/03/08 13:45:20;;;;;;;2.10;0.87;;;11.80;78.50;;;;;;4975297;28;20450;-73
2023/03/08 13:47:48;;;;;;;1.80;0.80;;;11.90;78.40;;;;;;4975044;28;20449;-73
2023/03/08 13:50:21;;;;;;;1.90;0.80;;;11.90;77.90;;;;;;4974745;28;20449;-71
2023/03/08 13:52:48;;;;;;;1.97;0.83;;;11.80;77.90;;;;;;4974531;28;20959;-75
2023/03/08 13:55:20;;;;;;;1.80;0.70;;;11.90;78.30;;;;;;4974069;28;20517;-73
2023/03/08 13:57:52;;;;;;;1.90;0.70;;;12.00;77.70;;;;;;4974829;28;20435;-74
2023/03/08 14:00:29;;;;;;;2.10;0.80;;;12.40;77.30;;;;;;4974384;28;20913;-73
2023/03/08 14:02:57;;;;;;;2.00;0.80;;;12.70;76.30;;;;;;4974207;28;20490;-73
2023/03/08 14:05:26;;;;;;;1.70;0.67;;;13.20;74.40;;;;;;4974615;28;20481;-72
2023/03/08 14:08:02;;;;;;;2.40;1.07;;;13.80;72.60;;;;;;4974806;28;20450;-73
2023/03/08 14:10:35;;;;;;;1.97;0.80;;;14.10;71.60;;;;;;4974567;28;20509;-73
2023/03/08 14:13:05;;;;;;;1.80;0.70;;;14.00;71.60;;;;;;4974767;28;20843;-73
2023/03/08 14:15:37;;;;;;;1.80;0.80;;;13.90;71.80;;;;;;4974963;28;20431;-75
2023/03/08 14:18:07;;;;;;;2.90;0.80;;;13.50;72.20;;;;;;4982579;28;20443;-78
2023/03/08 14:20:34;;;;;;;1.77;0.60;;;13.20;73.40;;;;;;4977992;28;21007;-76
2023/03/08 14:23:00;;;;;;;1.80;0.80;;;13.20;73.30;;;;;;4974337;28;20485;-76
2023/03/08 14:25:29;;;;;;;2.00;0.93;;;13.00;74.20;;;;;;4974083;28;20867;-75
2023/03/08 14:27:56;;;;;;;2.17;0.77;;;12.90;74.20;;;;;;4974518;28;20442;-75
2023/03/08 14:30:28;;;;;;;1.80;0.70;;;12.90;74.60;;;;;;4975249;28;20461;-76
2023/03/08 14:33:02;;;;;;;1.80;0.60;;;12.70;74.60;;;;;;4974485;28;20917;-76
2023/03/08 14:35:38;;;;;;;2.03;0.70;;;12.60;75.10;;;;;;4974968;28;20442;-77
2023/03/08 14:38:14;;;;;;;2.20;0.93;;;12.60;75.10;;;;;;4976129;28;20781;-76
2023/03/08 14:40:48;;;;;;;1.80;0.70;;;12.70;75.30;;;;;;4974975;28;20915;-76
2023/03/08 14:43:17;;;;;;;1.80;0.70;;;12.60;75.40;;;;;;4975008;28;20506;-76
2023/03/08 14:45:54;;;;;;;1.80;0.63;;;12.70;75.90;;;;;;4975259;28;20457;-76
2023/03/08 14:48:28;;;;;;;2.20;0.63;;;12.60;75.90;;;;;;4974950;28;20434;-75
2023/03/08 14:50:57;;;;;;;2.20;0.73;;;12.50;76.80;;;;;;4974891;28;20470;-75
2023/03/08 14:53:29;;;;;;;2.10;0.70;;;12.40;77.30;;;;;;4974390;28;20506;-74
2023/03/08 14:55:56;;;;;;;2.40;0.80;;;12.50;77.70;;;;;;4974335;28;20474;-75
2023/03/08 14:58:27;;;;;;;1.80;0.60;;;12.50;77.90;;;;;;4974175;28;20458;-74
2023/03/08 15:00:57;;;;;;;2.10;0.70;;;12.50;78.20;;;;;;4973829;28;21444;-73
2023/03/08 15:03:24;;;;;;;2.03;0.70;;;12.40;78.50;;;;;;4973822;28;20470;-76
2023/03/08 15:05:51;;;;;;;1.97;0.93;;;12.30;78.80;;;;;;4974532;28;20525;-74
2023/03/08 15:14:06;;;;;;;2.10;0.93;;;12.40;78.70;;;;;;4978145;28;20784;-76
2023/03/08 15:16:36;;;;;;;2.53;0.87;;;12.50;78.90;;;;;;4978038;28;20942;-77
2023/03/08 15:19:13;;;;;;;1.90;0.70;;;12.90;77.70;;;;;;4978318;28;20481;-77
2023/03/08 15:21:42;;;;;;;1.70;0.60;;;12.90;77.60;;;;;;4978353;28;20489;-76
2023/03/08 15:24:16;;;;;;;1.80;0.67;;;12.80;78.40;;;;;;4978508;28;20580;-75
2023/03/08 15:26:48;;;;;;;2.00;0.60;;;12.90;78.00;;;;;;4978503;28;20448;-76
2023/03/08 15:29:35;;;;;;;2.80;0.70;;;13.00;77.50;;;;;;4978268;28;20458;-76
2023/03/08 15:32:05;;;;;;;2.13;0.90;;;12.90;77.40;;;;;;4978148;28;20466;-76
2023/03/08 15:34:39;;;;;;;2.40;0.73;;;12.90;77.00;;;;;;4977966;28;20508;-76
2023/03/08 15:37:14;;;;;;;1.80;0.70;;;12.90;77.10;;;;;;4978074;28;20535;-77
2023/03/08 15:39:43;;;;;;;1.80;0.70;;;12.90;77.20;;;;;;4978105;28;20468;-77
2023/03/08 15:42:16;;;;;;;2.67;0.90;;;12.70;77.20;;;;;;4977701;28;20505;-76
2023/03/08 15:44:45;;;;;;;2.20;0.80;;;12.60;77.60;;;;;;4978440;28;20482;-77
2023/03/08 15:47:22;;;;;;;1.80;0.60;;;12.50;77.70;;;;;;4978018;28;20512;-75
2023/03/08 15:49:56;;;;;;;2.00;0.90;;;12.60;77.80;;;;;;4977886;28;20453;-77
2023/03/08 15:52:26;;;;;;;2.10;0.70;;;12.60;77.90;;;;;;4977700;28;20861;-76
2023/03/08 15:55:15;;;;;;;2.30;0.90;;;12.50;78.20;;;;;;4978224;28;20450;-76
2023/03/08 15:57:47;;;;;;;1.80;0.70;;;12.50;77.70;;;;;;4977646;28;20553;-76
2023/03/08 16:00:15;;;;;;;1.80;0.60;;;12.50;77.70;;;;;;4977379;28;20521;-76
2023/03/08 16:03:05;;;;;;;1.83;0.73;;;12.50;77.40;;;;;;4977970;28;20592;-76
2023/03/08 16:05:34;;;;;;;1.80;0.80;;;12.50;77.20;;;;;;4977730;28;20869;-76
2023/03/08 16:08:07;;;;;;;1.80;0.70;;;12.40;77.40;;;;;;4977507;28;20966;-76
2023/03/08 16:10:39;;;;;;;2.13;0.70;;;12.40;77.10;;;;;;4977274;28;20454;-76
2023/03/08 16:15:42;;;;;;;1.80;0.67;;;12.50;77.20;;;;;;4995111;28;20465;-72
2023/03/08 16:18:10;;;;;;;1.80;0.70;;;12.50;76.90;;;;;;4995520;28;20449;-72
2023/03/08 16:20:40;;;;;;;1.90;0.70;;;12.50;76.90;;;;;;4996292;28;20519;-72
2023/03/08 16:23:07;;;;;;;2.10;0.90;;;12.50;77.50;;;;;;4995792;28;20531;-73
2023/03/08 16:25:33;;;;;;;1.73;0.70;;;12.40;79.30;;;;;;4996166;28;20452;-72
2023/03/08 16:28:00;;;;;;;1.83;0.67;;;12.20;79.30;;;;;;4996001;28;20453;-72
2023/03/08 16:30:27;;;;;;;1.80;0.70;;;12.20;79.40;;;;;;4996170;28;20473;-71
2023/03/08 16:32:54;;;;;;;1.73;0.60;;;12.40;79.50;;;;;;4995951;28;20940;-73
2023/03/08 16:35:22;;;;;;;1.80;0.70;;;12.30;79.00;;;;;;4995644;28;20888;-72
2023/03/08 16:37:49;;;;;;;1.80;0.70;;;12.30;79.40;;;;;;4996190;28;20445;-73
2023/03/08 16:40:15;;;;;;;2.37;0.73;;;12.20;79.60;;;;;;4996194;28;20524;-72
2023/03/08 16:42:42;;;;;;;2.00;0.70;;;12.10;80.10;;;;;;4995664;28;20947;-72
2023/03/08 16:45:09;;;;;;;1.90;0.70;;;12.10;80.60;;;;;;4995327;28;21000;-73
2023/03/08 16:47:36;;;;;;;1.80;0.70;;;12.00;81.60;;;;;;4995924;28;20519;-72
2023/03/08 16:50:03;;;;;;;1.77;0.60;;;11.70;82.70;;;;;;4995639;28;20446;-72
2023/03/08 16:52:31;;;;;;;1.80;0.60;;;11.60;84.40;;;;;;4996780;28;20549;-72
2023/03/08 16:54:58;;;;;;;1.80;0.70;;;11.50;84.50;;;;;;4995824;28;20465;-73
2023/03/08 16:57:25;;;;;;;1.80;0.70;;;11.40;84.50;;;;;;4995600;28;20525;-72
2023/03/08 16:59:52;;;;;;;1.80;0.70;;;11.50;84.80;;;;;;4995601;28;20471;-73
2023/03/08 17:02:21;;;;;;;1.80;0.70;;;11.40;84.40;;;;;;4995548;28;21075;-72
2023/03/08 17:04:49;;;;;;;1.73;0.60;;;11.50;84.70;;;;;;4995326;28;20485;-73
2023/03/08 17:07:16;;;;;;;2.27;0.67;;;11.40;84.70;;;;;;4995891;28;20449;-73
2023/03/08 17:09:45;;;;;;;1.80;0.70;;;11.40;84.70;;;;;;4995934;28;20450;-74
2023/03/08 17:12:11;;;;;;;1.80;0.70;;;11.40;85.00;;;;;;4995754;28;20453;-73
2023/03/08 17:14:38;;;;;;;1.80;0.70;;;11.40;85.00;;;;;;4995582;28;20528;-73
2023/03/08 17:17:05;;;;;;;2.00;0.70;;;11.40;84.90;;;;;;4996063;28;20457;-73